createdAt,value
2022-08-26T00:01:41.604Z,7.05
2022-08-26T00:04:11.273Z,6.82
2022-08-26T00:06:38.517Z,6.32
2022-08-26T00:09:09.629Z,6.53
2022-08-26T00:11:36.498Z,6.60
2022-08-26T00:14:03.531Z,6.93
2022-08-26T00:16:30.194Z,7.40
2022-08-26T00:18:57.106Z,7.10
2022-08-26T00:21:24.828Z,7.13
2022-08-26T00:23:51.436Z,7.88
2022-08-26T00:26:18.360Z,6.68
2022-08-26T00:28:44.930Z,6.45
2022-08-26T00:31:11.958Z,6.60
2022-08-26T00:33:39.607Z,7.00
2022-08-26T00:36:07.614Z,6.18
2022-08-26T00:38:37.850Z,7.45
2022-08-26T00:41:05.654Z,7.88
2022-08-26T00:43:47.362Z,8.18
2022-08-26T00:46:19.408Z,8.25
2022-08-26T00:48:49.518Z,10.02
2022-08-26T00:51:20.886Z,10.80
2022-08-26T00:53:56.823Z,13.82
2022-08-26T00:56:53.801Z,14.82
2022-08-26T00:59:21.138Z,18.50
2022-08-26T01:01:47.801Z,20.13
2022-08-26T01:04:19.375Z,24.90
2022-08-26T01:06:49.223Z,23.75
2022-08-26T01:09:16.793Z,27.35
2022-08-26T01:11:44.349Z,31.75
2022-08-26T01:14:13.668Z,31.50
2022-08-26T01:16:40.365Z,31.58
2022-08-26T01:19:32.000Z,35.45
2022-08-26T01:22:21.876Z,37.15
2022-08-26T01:24:54.609Z,44.17
2022-08-26T01:27:22.084Z,41.58
2022-08-26T01:29:50.916Z,44.60
2022-08-26T01:34:47.668Z,48.78
2022-08-26T01:37:20.279Z,48.85
2022-08-26T01:39:50.761Z,52.03
2022-08-26T01:42:21.017Z,51.90
2022-08-26T01:45:01.047Z,50.15
2022-08-26T01:47:30.830Z,57.05
2022-08-26T01:50:01.175Z,61.65
2022-08-26T01:52:33.212Z,64.00
2022-08-26T01:55:00.842Z,61.25
2022-08-26T01:57:28.586Z,68.38
2022-08-26T01:59:58.687Z,70.30
2022-08-26T02:02:26.066Z,70.53
2022-08-26T02:05:05.405Z,67.30
2022-08-26T02:07:33.393Z,74.32
2022-08-26T02:10:00.202Z,76.55
2022-08-26T02:12:27.617Z,79.57
2022-08-26T02:14:58.006Z,75.93
2022-08-26T02:17:34.867Z,75.55
2022-08-26T02:20:02.485Z,84.18
2022-08-26T02:25:13.452Z,80.45
2022-08-26T02:27:40.804Z,83.25
2022-08-26T02:30:15.133Z,84.70
2022-08-26T02:32:44.550Z,82.90
2022-08-26T02:35:13.100Z,77.80
2022-08-26T02:37:44.941Z,76.75
2022-08-26T02:40:14.042Z,83.23
2022-08-26T02:42:41.482Z,77.97
2022-08-26T02:45:10.634Z,75.18
2022-08-26T02:47:37.535Z,81.35
2022-08-26T02:50:04.952Z,80.35
2022-08-26T02:54:58.954Z,74.50
2022-08-26T02:57:26.245Z,73.22
2022-08-26T02:59:52.853Z,77.72
2022-08-26T03:02:19.437Z,73.47
2022-08-26T03:04:57.342Z,70.43
2022-08-26T03:07:24.779Z,71.30
2022-08-26T03:09:53.001Z,63.67
2022-08-26T03:12:20.438Z,71.22
2022-08-26T03:14:47.828Z,77.70
2022-08-26T03:17:14.407Z,75.57
2022-08-26T03:19:40.944Z,72.57
2022-08-26T03:22:07.850Z,67.27
2022-08-26T03:24:34.528Z,66.28
2022-08-26T03:27:02.061Z,67.63
2022-08-26T03:29:52.193Z,66.55
2022-08-26T03:32:20.803Z,64.90
2022-08-26T03:34:47.430Z,63.60
2022-08-26T03:37:14.803Z,52.73
2022-08-26T03:39:41.781Z,59.55
2022-08-26T03:42:08.324Z,63.35
2022-08-26T03:44:37.725Z,60.45
2022-08-26T03:47:08.590Z,63.72
2022-08-26T03:49:36.014Z,59.42
2022-08-26T03:52:03.777Z,62.60
2022-08-26T03:54:30.579Z,60.70
2022-08-26T03:56:57.141Z,60.00
2022-08-26T03:59:23.682Z,56.78
2022-08-26T04:01:51.498Z,57.28
2022-08-26T04:04:18.239Z,57.53
2022-08-26T04:06:50.381Z,59.67
2022-08-26T04:11:50.512Z,59.45
2022-08-26T04:14:21.095Z,60.03
2022-08-26T04:16:48.366Z,60.78
2022-08-26T04:19:16.677Z,61.30
2022-08-26T04:21:44.165Z,58.63
2022-08-26T04:24:12.865Z,58.08
2022-08-26T04:26:42.552Z,63.85
2022-08-26T04:29:17.710Z,58.70
2022-08-26T04:31:45.154Z,60.47
2022-08-26T04:36:41.917Z,59.35
2022-08-26T04:39:12.070Z,61.42
2022-08-26T04:41:39.690Z,57.58
2022-08-26T04:44:07.767Z,57.45
2022-08-26T04:46:35.319Z,54.45
2022-08-26T04:49:11.010Z,47.90
2022-08-26T04:51:38.220Z,50.08
2022-08-26T04:56:37.097Z,45.35
2022-08-26T04:59:07.224Z,43.42
2022-08-26T05:01:39.514Z,40.72
2022-08-26T05:04:08.198Z,40.13
2022-08-26T05:06:36.921Z,40.22
2022-08-26T05:09:03.984Z,39.72
2022-08-26T05:11:30.594Z,37.95
2022-08-26T05:14:01.658Z,38.10
2022-08-26T05:16:30.379Z,36.22
2022-08-26T05:18:57.531Z,38.28
2022-08-26T05:21:26.396Z,37.50
2022-08-26T05:23:57.106Z,33.53
2022-08-26T05:26:29.672Z,34.60
2022-08-26T05:28:56.876Z,33.55
2022-08-26T05:31:27.388Z,32.70
2022-08-26T05:33:54.868Z,29.60
2022-08-26T05:36:24.089Z,29.45
2022-08-26T05:38:54.336Z,31.65
2022-08-26T05:41:24.953Z,28.58
2022-08-26T05:43:52.473Z,26.90
2022-08-26T05:48:46.945Z,26.73
2022-08-26T05:51:14.379Z,25.55
2022-08-26T05:53:43.969Z,26.98
2022-08-26T05:56:25.016Z,27.02
2022-08-26T05:58:52.155Z,25.63
2022-08-26T06:01:22.157Z,26.08
2022-08-26T06:03:52.620Z,23.88
2022-08-26T06:06:27.456Z,23.88
2022-08-26T06:08:57.547Z,24.75
2022-08-26T06:11:25.568Z,22.65
2022-08-26T06:13:53.819Z,23.77
2022-08-26T06:16:24.578Z,25.70
2022-08-26T06:18:53.182Z,21.35
2022-08-26T06:21:27.903Z,23.67
2022-08-26T06:24:18.306Z,22.52
2022-08-26T06:26:54.877Z,22.52
2022-08-26T06:33:39.662Z,22.08
2022-08-26T06:36:06.917Z,20.73
2022-08-26T06:38:33.861Z,22.83
2022-08-26T06:41:03.209Z,22.77
2022-08-26T06:43:30.135Z,21.33
2022-08-26T06:46:05.073Z,20.35
2022-08-26T06:48:35.939Z,21.25
2022-08-26T06:51:11.436Z,20.80
2022-08-26T06:53:39.722Z,20.98
2022-08-26T06:56:09.994Z,22.80
2022-08-26T06:58:39.077Z,22.55
2022-08-26T07:01:28.314Z,21.70
2022-08-26T07:03:59.611Z,20.02
2022-08-26T07:06:28.330Z,19.65
2022-08-26T07:09:01.712Z,17.50
2022-08-26T07:11:31.008Z,19.27
2022-08-26T07:13:58.991Z,18.75
2022-08-26T07:16:28.375Z,16.98
2022-08-26T07:18:56.928Z,18.85
2022-08-26T07:23:50.687Z,23.25
2022-08-26T07:26:24.904Z,23.53
2022-08-26T07:28:53.539Z,25.00
2022-08-26T07:31:22.611Z,22.17
2022-08-26T07:33:49.511Z,22.48
2022-08-26T07:36:21.175Z,20.83
2022-08-26T07:38:48.305Z,21.58
2022-08-26T07:41:17.469Z,17.58
2022-08-26T07:43:45.545Z,19.30
2022-08-26T07:46:20.755Z,19.20
2022-08-26T07:48:54.060Z,21.00
2022-08-26T07:51:21.367Z,24.27
2022-08-26T07:53:52.798Z,21.55
2022-08-26T07:56:20.863Z,24.45
2022-08-26T07:58:50.947Z,26.25
2022-08-26T08:01:20.018Z,26.27
2022-08-26T08:03:50.555Z,24.23
2022-08-26T08:06:18.550Z,22.40
2022-08-26T08:08:45.153Z,25.58
2022-08-26T08:11:12.104Z,29.23
2022-08-26T08:13:39.811Z,33.27
2022-08-26T08:16:12.529Z,32.28
2022-08-26T08:18:40.536Z,33.53
2022-08-26T08:21:24.097Z,30.00
2022-08-26T08:23:55.600Z,30.13
2022-08-26T08:26:23.836Z,29.98
2022-08-26T08:28:53.639Z,27.80
2022-08-26T08:31:55.971Z,25.95
2022-08-26T08:34:19.310Z,26.20
2022-08-26T08:36:48.518Z,22.75
2022-08-26T08:39:17.053Z,23.33
2022-08-26T08:41:46.577Z,23.17
2022-08-26T08:44:19.980Z,23.73
2022-08-26T08:46:56.483Z,21.75
2022-08-26T08:49:26.005Z,22.25
2022-08-26T08:52:05.086Z,26.30
2022-08-26T08:54:32.653Z,24.10
2022-08-26T08:57:12.597Z,20.70
2022-08-26T08:59:53.350Z,24.30
2022-08-26T09:02:35.765Z,20.50
2022-08-26T09:05:22.543Z,18.52
2022-08-26T09:08:19.814Z,16.77
2022-08-26T09:10:54.390Z,16.08
2022-08-26T09:13:25.426Z,14.77
2022-08-26T09:16:07.540Z,13.65
2022-08-26T09:19:01.774Z,13.25
2022-08-26T09:21:31.409Z,12.23
2022-08-26T09:23:58.787Z,12.88
2022-08-26T09:26:40.994Z,13.00
2022-08-26T09:31:45.369Z,14.30
2022-08-26T09:34:22.132Z,15.07
2022-08-26T09:36:53.638Z,15.82
2022-08-26T09:39:37.825Z,14.10
2022-08-26T09:42:07.861Z,12.85
2022-08-26T09:44:56.499Z,12.48
2022-08-26T09:47:29.317Z,11.07
2022-08-26T09:50:29.217Z,14.80
2022-08-26T09:53:17.244Z,14.77
2022-08-26T09:55:49.903Z,14.25
2022-08-26T09:58:37.953Z,14.52
2022-08-26T10:01:15.085Z,12.98
2022-08-26T10:08:42.360Z,12.15
2022-08-26T10:11:29.968Z,14.35
2022-08-26T10:14:25.354Z,16.27
2022-08-26T10:17:07.185Z,16.10
2022-08-26T10:19:56.829Z,14.40
2022-08-26T10:22:24.152Z,14.85
2022-08-26T10:24:56.053Z,12.30
2022-08-26T10:27:50.977Z,14.93
2022-08-26T10:30:23.371Z,13.60
2022-08-26T10:33:00.879Z,13.48
2022-08-26T10:35:28.995Z,15.07
2022-08-26T10:38:00.442Z,12.27
2022-08-26T10:40:44.855Z,10.75
2022-08-26T10:43:27.209Z,11.85
2022-08-26T10:45:59.141Z,13.23
2022-08-26T10:48:25.974Z,13.30
2022-08-26T10:51:04.269Z,17.20
2022-08-26T10:53:58.272Z,23.80
2022-08-26T10:56:29.746Z,41.13
2022-08-26T10:59:16.543Z,43.08
2022-08-26T11:01:58.209Z,30.13
2022-08-26T11:04:48.402Z,29.25
2022-08-26T11:07:31.700Z,21.65
2022-08-26T11:10:09.787Z,19.40
2022-08-26T11:12:36.321Z,18.58
2022-08-26T11:15:11.410Z,19.50
2022-08-26T11:17:45.954Z,18.98
2022-08-26T11:20:50.866Z,23.30
2022-08-26T11:23:20.606Z,21.08
2022-08-26T11:25:57.334Z,27.35
2022-08-26T11:28:44.145Z,26.50
2022-08-26T11:31:25.930Z,25.88
2022-08-26T11:34:07.281Z,27.90
2022-08-26T11:36:45.442Z,30.98
2022-08-26T11:39:31.744Z,26.95
2022-08-26T11:42:31.597Z,27.00
2022-08-26T11:44:59.892Z,26.02
2022-08-26T11:47:31.619Z,27.60
2022-08-26T11:50:15.437Z,25.27
2022-08-26T11:53:01.729Z,26.92
2022-08-26T11:55:30.735Z,25.00
2022-08-26T11:58:01.030Z,19.88
2022-08-26T12:00:33.755Z,19.75
2022-08-26T12:03:06.488Z,25.17
2022-08-26T12:05:42.389Z,20.67
2022-08-26T12:08:12.435Z,20.15
2022-08-26T12:10:40.242Z,18.40
2022-08-26T12:13:08.685Z,16.95
2022-08-26T12:15:35.845Z,13.75
2022-08-26T12:18:29.195Z,11.73
2022-08-26T12:20:59.314Z,13.38
2022-08-26T12:23:35.075Z,10.48
2022-08-26T12:28:47.712Z,11.13
2022-08-26T12:31:22.580Z,9.23
2022-08-26T12:33:49.777Z,11.65
2022-08-26T12:36:38.354Z,14.07
2022-08-26T12:39:24.516Z,12.93
2022-08-26T12:41:54.749Z,12.53
2022-08-26T12:44:41.543Z,13.95
2022-08-26T12:47:42.704Z,13.88
2022-08-26T12:50:18.954Z,11.57
2022-08-26T12:52:54.367Z,9.13
2022-08-26T12:55:43.052Z,8.30
2022-08-26T12:58:28.720Z,11.15
2022-08-26T13:01:04.790Z,7.90
2022-08-26T13:03:31.466Z,5.68
2022-08-26T13:06:15.926Z,5.83
2022-08-26T13:08:48.349Z,6.78
2022-08-26T13:11:22.191Z,6.00
2022-08-26T13:13:53.433Z,8.10
2022-08-26T13:16:22.214Z,6.75
2022-08-26T13:18:52.856Z,5.85
2022-08-26T13:21:22.560Z,4.53
2022-08-26T13:23:50.332Z,4.18
2022-08-26T13:26:18.139Z,5.07
2022-08-26T13:28:44.711Z,6.80
2022-08-26T13:31:16.090Z,6.07
2022-08-26T13:33:45.361Z,4.32
2022-08-26T13:36:14.948Z,2.85
2022-08-26T13:38:41.887Z,3.23
2022-08-26T13:41:14.995Z,3.45
2022-08-26T13:43:43.226Z,3.75
2022-08-26T13:46:09.834Z,3.20
2022-08-26T13:48:36.651Z,2.83
2022-08-26T13:51:08.278Z,2.88
2022-08-26T13:53:35.661Z,2.42
2022-08-26T13:56:02.380Z,3.40
2022-08-26T13:58:29.347Z,2.67
2022-08-26T14:00:57.991Z,2.80
2022-08-26T14:03:25.019Z,2.70
2022-08-26T14:05:53.464Z,2.85
2022-08-26T14:08:21.594Z,1.67
2022-08-26T14:13:15.583Z,2.88
2022-08-26T14:15:42.426Z,2.58
2022-08-26T14:18:12.189Z,4.50
2022-08-26T14:20:39.424Z,2.17
2022-08-26T14:23:14.475Z,3.30
2022-08-26T14:25:41.248Z,2.65
2022-08-26T14:28:07.942Z,3.60
2022-08-26T14:30:34.615Z,4.03
2022-08-26T14:33:01.139Z,2.87
2022-08-26T14:35:31.150Z,1.73
2022-08-26T14:37:58.315Z,3.17
2022-08-26T14:40:28.961Z,2.92
2022-08-26T14:42:55.980Z,2.60
2022-08-26T14:45:28.550Z,2.85
2022-08-26T14:47:59.838Z,2.63
2022-08-26T14:50:26.648Z,2.45
2022-08-26T14:53:11.978Z,2.05
2022-08-26T14:55:42.220Z,2.95
2022-08-26T14:58:09.881Z,4.22
2022-08-26T15:00:37.252Z,6.32
2022-08-26T15:03:06.874Z,4.93
2022-08-26T15:05:34.144Z,3.85
2022-08-26T15:08:02.318Z,2.83
2022-08-26T15:10:28.971Z,3.10
2022-08-26T15:12:55.594Z,2.47
2022-08-26T15:15:23.978Z,2.50
2022-08-26T15:17:50.579Z,3.00
2022-08-26T15:20:17.137Z,3.13
2022-08-26T15:22:44.479Z,2.70
2022-08-26T15:27:38.881Z,4.22
2022-08-26T15:30:09.187Z,4.30
2022-08-26T15:32:36.277Z,3.25
2022-08-26T15:35:08.204Z,2.88
2022-08-26T15:37:35.914Z,3.67
2022-08-26T15:40:02.954Z,5.00
2022-08-26T15:42:29.755Z,3.78
2022-08-26T15:44:56.433Z,4.47
2022-08-26T15:47:23.827Z,4.80
2022-08-26T15:52:17.386Z,3.93
2022-08-26T15:54:47.348Z,4.35
2022-08-26T15:57:16.448Z,4.93
2022-08-26T15:59:45.723Z,5.93
2022-08-26T16:02:12.438Z,5.13
2022-08-26T16:04:39.139Z,5.27
2022-08-26T16:07:05.865Z,4.20
2022-08-26T16:09:32.469Z,4.47
2022-08-26T16:11:59.022Z,4.87
2022-08-26T16:14:28.839Z,5.10
2022-08-26T16:16:57.606Z,6.13
2022-08-26T16:19:24.650Z,7.28
2022-08-26T16:21:51.551Z,6.97
2022-08-26T16:24:24.746Z,4.40
2022-08-26T16:26:58.675Z,4.10
2022-08-26T16:29:25.502Z,6.70
2022-08-26T16:31:54.605Z,4.15
2022-08-26T16:34:21.946Z,4.97
2022-08-26T16:36:48.493Z,3.92
2022-08-26T16:39:15.058Z,5.72
2022-08-26T16:41:42.275Z,3.47
2022-08-26T16:44:09.125Z,3.00
2022-08-26T16:46:36.025Z,4.13
2022-08-26T16:49:04.747Z,2.92
2022-08-26T16:51:32.709Z,3.28
2022-08-26T16:54:07.141Z,3.45
2022-08-26T16:56:34.530Z,3.15
2022-08-26T17:01:28.890Z,3.88
2022-08-26T17:03:55.630Z,4.47
2022-08-26T17:06:22.377Z,3.60
2022-08-26T17:08:49.547Z,5.13
2022-08-26T17:11:16.155Z,4.97
2022-08-26T17:13:43.047Z,4.67
2022-08-26T17:16:11.944Z,4.18
2022-08-26T17:18:38.653Z,5.03
2022-08-26T17:21:10.735Z,3.90
2022-08-26T17:23:38.425Z,4.75
2022-08-26T17:26:05.408Z,3.92
2022-08-26T17:28:32.460Z,3.80
2022-08-26T17:30:59.470Z,3.97
2022-08-26T17:33:26.254Z,4.43
2022-08-26T17:35:53.357Z,4.40
2022-08-26T17:38:21.398Z,4.55
2022-08-26T17:40:53.676Z,5.88
2022-08-26T17:43:20.906Z,5.10
2022-08-26T17:45:47.645Z,4.53
2022-08-26T17:48:14.522Z,4.90
2022-08-26T17:50:49.317Z,4.30
2022-08-26T17:53:19.210Z,4.97
2022-08-26T17:58:40.548Z,6.63
2022-08-26T18:01:14.459Z,3.63
2022-08-26T18:04:05.967Z,3.33
2022-08-26T18:06:32.782Z,3.92
2022-08-26T18:09:00.241Z,4.40
2022-08-26T18:11:27.209Z,4.00
2022-08-26T18:13:54.053Z,5.40
2022-08-26T18:16:24.171Z,3.27
2022-08-26T18:18:53.839Z,4.20
2022-08-26T18:21:23.673Z,4.80
2022-08-26T18:23:51.384Z,3.88
2022-08-26T18:26:36.151Z,6.05
2022-08-26T18:29:04.118Z,4.15
2022-08-26T18:31:31.565Z,5.63
2022-08-26T18:36:36.749Z,4.57
2022-08-26T18:39:05.838Z,4.20
2022-08-26T18:41:38.734Z,4.32
2022-08-26T18:44:05.441Z,3.75
2022-08-26T18:46:32.222Z,3.93
2022-08-26T18:48:58.977Z,3.47
2022-08-26T18:51:29.717Z,3.23
2022-08-26T18:53:57.219Z,3.20
2022-08-26T18:58:50.582Z,3.28
2022-08-26T19:01:18.987Z,4.55
2022-08-26T19:03:46.840Z,3.50
2022-08-26T19:06:20.254Z,3.45
2022-08-26T19:08:49.712Z,3.78
2022-08-26T19:11:18.107Z,3.25
2022-08-26T19:13:58.419Z,3.40
2022-08-26T19:16:26.940Z,3.38
2022-08-26T19:18:54.703Z,3.55
2022-08-26T19:21:23.035Z,3.30
2022-08-26T19:23:50.175Z,3.50
2022-08-26T19:26:17.597Z,4.00
2022-08-26T19:28:44.242Z,3.80
2022-08-26T19:31:11.998Z,3.30
2022-08-26T19:33:40.315Z,3.67
2022-08-26T19:36:08.711Z,3.47
2022-08-26T19:38:38.043Z,3.35
2022-08-26T19:41:04.594Z,3.17
2022-08-26T19:43:31.115Z,2.95
2022-08-26T19:48:25.471Z,5.07
2022-08-26T19:50:51.978Z,5.20
2022-08-26T19:53:19.794Z,4.30
2022-08-26T19:55:46.340Z,6.90
2022-08-26T19:58:13.018Z,3.58
2022-08-26T20:00:39.797Z,3.53
2022-08-26T20:03:08.593Z,4.10
2022-08-26T20:05:39.585Z,3.58
2022-08-26T20:08:06.169Z,3.13
2022-08-26T20:10:35.293Z,2.65
2022-08-26T20:13:01.877Z,2.70
2022-08-26T20:15:28.645Z,3.57
2022-08-26T20:20:41.092Z,3.80
2022-08-26T20:23:08.720Z,4.55
2022-08-26T20:25:35.464Z,4.38
2022-08-26T20:28:02.150Z,4.73
2022-08-26T20:30:28.708Z,4.83
2022-08-26T20:32:55.588Z,5.47
2022-08-26T20:35:23.937Z,4.27
2022-08-26T20:37:50.542Z,4.82
2022-08-26T20:40:17.470Z,4.45
2022-08-26T20:42:44.072Z,4.97
2022-08-26T20:45:11.240Z,5.13
2022-08-26T20:47:37.894Z,4.65
2022-08-26T20:50:04.828Z,5.07
2022-08-26T20:52:31.492Z,5.10
2022-08-26T20:54:58.153Z,4.17
2022-08-26T20:57:24.711Z,5.35
2022-08-26T20:59:51.411Z,6.90
2022-08-26T21:02:18.278Z,14.07
2022-08-26T21:04:44.824Z,16.83
2022-08-26T21:07:11.493Z,17.85
2022-08-26T21:09:38.037Z,14.93
2022-08-26T21:12:05.181Z,13.13
2022-08-26T21:14:32.030Z,12.57
2022-08-26T21:16:58.824Z,11.37
2022-08-26T21:19:25.420Z,12.30
2022-08-26T21:21:52.092Z,10.93
2022-08-26T21:24:18.904Z,10.43
2022-08-26T21:26:45.984Z,10.60
2022-08-26T21:29:13.888Z,12.70
2022-08-26T21:31:46.019Z,12.25
2022-08-26T21:34:16.111Z,14.15
2022-08-26T21:36:42.937Z,14.70
2022-08-26T21:39:12.074Z,15.87
2022-08-26T21:41:40.536Z,14.52
2022-08-26T21:44:07.587Z,13.80
2022-08-26T21:46:37.373Z,12.05
2022-08-26T21:49:07.470Z,10.27
2022-08-26T21:51:37.875Z,7.95
2022-08-26T21:54:10.161Z,7.13
2022-08-26T21:56:39.915Z,6.53
2022-08-26T21:59:07.630Z,5.00
2022-08-26T22:01:34.786Z,4.85
2022-08-26T22:04:08.584Z,3.40
2022-08-26T22:06:41.769Z,3.42
2022-08-26T22:09:08.369Z,3.72
2022-08-26T22:11:35.053Z,3.63
2022-08-26T22:14:01.736Z,3.00
2022-08-26T22:16:28.814Z,3.15
2022-08-26T22:18:55.712Z,3.13
2022-08-26T22:21:24.350Z,3.07
2022-08-26T22:23:51.541Z,3.58
2022-08-26T22:26:25.774Z,3.85
2022-08-26T22:28:58.489Z,3.88
2022-08-26T22:31:28.102Z,4.15
2022-08-26T22:34:07.200Z,3.45
2022-08-26T22:36:34.050Z,3.22
2022-08-26T22:39:01.139Z,4.43
2022-08-26T22:41:27.875Z,5.10
2022-08-26T22:43:54.558Z,4.00
2022-08-26T22:46:24.864Z,4.00
2022-08-26T22:48:54.037Z,3.88
2022-08-26T22:51:21.978Z,4.38
2022-08-26T22:53:48.696Z,3.53
2022-08-26T22:56:15.777Z,3.80
2022-08-26T22:58:42.522Z,3.92
2022-08-26T23:01:09.138Z,3.80
2022-08-26T23:03:35.882Z,3.60
2022-08-26T23:06:06.000Z,4.07
2022-08-26T23:08:32.755Z,3.83
2022-08-26T23:10:59.302Z,4.17
2022-08-26T23:13:25.850Z,3.35
2022-08-26T23:16:00.620Z,3.10
2022-08-26T23:18:27.220Z,3.03
2022-08-26T23:20:55.515Z,3.55
2022-08-26T23:23:22.893Z,3.20
2022-08-26T23:25:49.927Z,3.20
2022-08-26T23:28:17.061Z,3.35
2022-08-26T23:30:43.691Z,3.85
2022-08-26T23:33:10.244Z,4.35
2022-08-26T23:35:36.813Z,4.05
2022-08-26T23:38:05.296Z,3.53
2022-08-26T23:40:34.681Z,4.00
2022-08-26T23:43:05.252Z,4.32
2022-08-26T23:45:32.471Z,5.65
2022-08-26T23:47:59.371Z,5.43
2022-08-26T23:50:49.535Z,5.60
2022-08-26T23:53:20.046Z,6.32
2022-08-26T23:55:52.081Z,6.43
